Boulder City, Nevada
Current Conditions -  °F | °C
As of 5:55 PM on Saturday 22 Nov 2014 (Local Time) from KBVU Reporting Station
Clear Clear  
Wind Chill: 64°   Ceiling: Unl
Heat Index: 64°   Visibility: 10mi
Dew Point: 30°   Wind: 7mph
Humidity: 28%   Direction: 150°SSE
Pressure: 29.87"   Gusts: NA
Location:  35.98°N, 114.83°W
Report Text: KBVU 230155Z AUTO 15006KT 10SM CLR 18/M01 A2987 RMK AO2
Loading
Personal Weather Stations






























Interactive Weather Map New forecast layout! Learn more

10-Day Weather Forecast

Advertisements
Track Severe Weather on mobile